Portada
METAR-TAF:

METAR-TAF

Aeropuertos :

Capital City Airport

Frankfort, Kentucky, Estados Unidos

latitud: 38-11-05N, longitud: 084-54-12W, altitud: 245 m

Observación

El informe se hizo hace 43 minutos, a las 18:53 UTC
Viento 7 kt del suroeste
Temperatura 30°C
Humedad 55%
Presión 1025 hPa
Visibilidad: 16.1 km
Cielo despejado

METAR: KFFT 191853Z AUTO 23007KT 10SM CLR 30/20 A3027 RMK AO2 SLP239 T03000200

Hora: 15:36 (19:36 UTC)


TAF: falta

Observaciones y pronósticos meteorológicos de más de 4000 aeropuertos (mensajes METAR y TAF).

Los puntos amarillos y rojos representan las estaciones disponibles.

Ponga el ratón en el punto deseado para ver el nombre de la estación.

Haga clic para ver las observaciones y los pronósticos meteorológicos.

Para cambiar el mapa : haga clic en los botones verdes con una cruz de color negro para hacer un zoom, en el botón verde con un guión para alejar o en las flechas verdes para mapas adyacentes.


METAR-TAF: